Time;durP1;ratioP1;P1;durP2;ratioP2;P2;SDS_P1;SDS_P2;PMS_P1;PMS_P2;Temp;Humidity;BMP_temperature;BMP_pressure;BME280_temperature;BME280_humidity;BME280_pressure;Samples;Min_cycle;Max_cycle;Signal;HPM_P1;HPM_P2
2024/01/08 00:02:22;;;;;;;0.13;0.13;;;-1.70;99.90;;;;;;5001067;28;20135;-70
2024/01/08 00:04:48;;;;;;;1.15;0.88;;;-1.80;99.90;;;;;;4984670;28;20128;-71
2024/01/08 00:07:14;;;;;;;0.25;0.20;;;-1.80;99.90;;;;;;4986289;28;20134;-71
2024/01/08 00:09:39;;;;;;;0.60;0.45;;;-1.80;99.90;;;;;;4993896;28;21038;-70
2024/01/08 00:12:05;;;;;;;0.90;0.65;;;-1.80;99.90;;;;;;4997400;28;20188;-71
2024/01/08 00:14:31;;;;;;;1.33;1.23;;;-1.80;99.90;;;;;;4999010;28;20045;-70
2024/01/08 00:16:56;;;;;;;2.05;0.98;;;-1.80;99.90;;;;;;4988095;28;20129;-70
2024/01/08 00:19:22;;;;;;;0.55;0.30;;;-1.80;99.90;;;;;;5002833;28;20038;-71
2024/01/08 00:21:48;;;;;;;0.30;0.30;;;-1.80;99.90;;;;;;4998668;28;20030;-70
2024/01/08 00:24:13;;;;;;;1.60;1.20;;;-1.80;99.90;;;;;;4998719;28;20041;-70
2024/01/08 00:26:39;;;;;;;0.55;0.40;;;-1.80;99.90;;;;;;5001536;28;20120;-70
2024/01/08 00:29:05;;;;;;;1.15;0.70;;;-1.90;99.90;;;;;;5005821;28;20037;-70
2024/01/08 00:31:30;;;;;;;0.30;0.28;;;-1.80;99.90;;;;;;5001179;28;20050;-70
2024/01/08 00:33:57;;;;;;;2.13;0.68;;;-1.80;99.90;;;;;;5008110;28;20054;-70
2024/01/08 00:36:24;;;;;;;1.23;0.80;;;-1.80;99.90;;;;;;5006089;28;20048;-70
2024/01/08 00:38:49;;;;;;;1.92;1.55;;;-1.80;99.90;;;;;;5003083;28;20030;-70
2024/01/08 00:41:15;;;;;;;0.60;0.50;;;-1.80;99.90;;;;;;5005603;28;20045;-71
2024/01/08 00:43:41;;;;;;;0.05;0.05;;;-1.90;99.90;;;;;;5010362;28;20029;-70
2024/01/08 00:46:07;;;;;;;0.50;0.50;;;-1.90;99.90;;;;;;5004549;28;20061;-70
2024/01/08 00:48:33;;;;;;;0.95;0.93;;;-1.90;99.90;;;;;;5014643;28;20057;-70
2024/01/08 00:50:58;;;;;;;1.08;0.70;;;-1.90;99.90;;;;;;5007896;28;20815;-70
2024/01/08 00:53:24;;;;;;;2.03;0.55;;;-1.90;99.90;;;;;;5012643;28;20164;-70
2024/01/08 00:55:50;;;;;;;0.70;0.30;;;-2.00;99.90;;;;;;5005992;28;20049;-70
2024/01/08 00:58:15;;;;;;;0.80;0.57;;;-1.90;99.90;;;;;;5014652;28;20537;-70
2024/01/08 01:00:41;;;;;;;0.55;0.10;;;-1.90;99.90;;;;;;5009517;28;20069;-70
2024/01/08 01:03:07;;;;;;;3.03;1.05;;;-1.90;99.90;;;;;;5010705;28;20126;-70
2024/01/08 01:05:32;;;;;;;0.70;0.68;;;-1.90;99.90;;;;;;5004321;28;20046;-70
2024/01/08 01:07:58;;;;;;;0.70;0.68;;;-2.00;99.90;;;;;;5004685;28;20048;-70
2024/01/08 01:10:24;;;;;;;1.15;0.75;;;-2.00;99.90;;;;;;5001637;28;20046;-70
2024/01/08 01:12:50;;;;;;;0.82;0.50;;;-2.00;99.90;;;;;;5000831;28;20382;-70
2024/01/08 01:15:15;;;;;;;0.80;0.80;;;-2.00;99.90;;;;;;5006692;28;20512;-70
2024/01/08 01:17:41;;;;;;;1.00;0.68;;;-2.00;99.90;;;;;;5006771;28;20045;-70
2024/01/08 01:20:07;;;;;;;0.55;0.10;;;-2.00;99.90;;;;;;5013764;28;20057;-70
2024/01/08 01:22:33;;;;;;;0.60;0.60;;;-2.00;99.90;;;;;;4996256;28;20113;-71
2024/01/08 01:24:59;;;;;;;0.38;0.32;;;-2.00;99.90;;;;;;5008604;28;20120;-70
2024/01/08 01:27:24;;;;;;;6.65;1.55;;;-1.90;99.90;;;;;;4990802;28;20029;-70
2024/01/08 01:29:51;;;;;;;0.60;0.60;;;-1.90;99.90;;;;;;5007170;28;20410;-70
2024/01/08 01:32:16;;;;;;;0.08;0.08;;;-1.90;99.90;;;;;;5004891;28;20509;-70
2024/01/08 01:34:42;;;;;;;2.17;0.85;;;-1.80;99.90;;;;;;5005963;28;20232;-70
2024/01/08 01:37:08;;;;;;;0.43;0.43;;;-1.80;99.90;;;;;;5007005;28;20098;-70
2024/01/08 01:39:33;;;;;;;0.45;0.35;;;-1.80;99.90;;;;;;5007044;28;20406;-70
2024/01/08 01:41:59;;;;;;;1.52;0.65;;;-1.70;99.90;;;;;;4994323;28;20045;-70
2024/01/08 01:44:25;;;;;;;0.63;0.63;;;-1.70;99.90;;;;;;4994217;28;20136;-70
2024/01/08 01:46:53;;;;;;;2.22;1.17;;;-1.60;99.90;;;;;;5007538;28;20602;-70
2024/01/08 01:49:21;;;;;;;3.47;1.63;;;-1.60;99.90;;;;;;5006042;28;20473;-71
2024/01/08 01:51:48;;;;;;;0.93;0.80;;;-1.60;99.90;;;;;;4997953;28;20045;-71
2024/01/08 01:54:22;;;;;;;4.22;0.60;;;-1.60;99.90;;;;;;5003762;28;20063;-71
2024/01/08 01:56:52;;;;;;;1.45;1.25;;;-1.60;99.90;;;;;;5006295;28;20041;-70
2024/01/08 01:59:19;;;;;;;0.63;0.63;;;-1.50;99.90;;;;;;5006614;28;20543;-70
2024/01/08 02:01:45;;;;;;;1.83;0.95;;;-1.50;99.90;;;;;;5007535;28;20521;-70
2024/01/08 02:04:13;;;;;;;2.53;0.93;;;-1.50;99.90;;;;;;5005650;28;20066;-71
2024/01/08 02:06:40;;;;;;;0.82;0.40;;;-1.50;99.90;;;;;;5000908;28;20069;-71
2024/01/08 02:09:10;;;;;;;4.00;1.38;;;-1.40;99.90;;;;;;5009625;28;20092;-71
2024/01/08 02:11:36;;;;;;;2.88;0.88;;;-1.40;99.90;;;;;;4996387;28;20081;-70
2024/01/08 02:14:02;;;;;;;0.75;0.52;;;-1.40;99.90;;;;;;4994224;28;20261;-71
2024/01/08 02:16:28;;;;;;;0.95;0.85;;;-1.40;99.90;;;;;;4980429;28;20498;-71
2024/01/08 02:18:53;;;;;;;2.65;1.05;;;-1.40;99.90;;;;;;5026442;28;20485;-70
2024/01/08 02:21:19;;;;;;;0.57;0.47;;;-1.30;99.90;;;;;;5003881;28;20041;-71
2024/01/08 02:23:45;;;;;;;1.38;0.47;;;-1.30;99.90;;;;;;5010085;28;20033;-71
2024/01/08 02:26:12;;;;;;;2.30;1.20;;;-1.30;99.90;;;;;;5005562;28;20038;-71
2024/01/08 02:28:37;;;;;;;1.65;1.55;;;-1.20;99.90;;;;;;5015515;28;20033;-71
2024/01/08 02:31:04;;;;;;;1.40;0.40;;;-1.20;99.90;;;;;;4982646;28;20037;-71
2024/01/08 02:33:29;;;;;;;1.38;0.43;;;-1.20;99.90;;;;;;5001518;28;20095;-71
2024/01/08 02:35:57;;;;;;;2.20;0.40;;;-1.20;99.90;;;;;;5001727;28;20397;-71
2024/01/08 02:38:22;;;;;;;0.70;0.63;;;-1.10;99.90;;;;;;5003638;28;20053;-73
2024/01/08 02:40:48;;;;;;;0.38;0.22;;;-1.10;99.90;;;;;;5009627;28;20459;-73
2024/01/08 02:43:14;;;;;;;1.50;0.98;;;-1.10;99.90;;;;;;4999651;28;20095;-73
2024/01/08 02:45:40;;;;;;;0.82;0.73;;;-1.10;99.90;;;;;;5012665;28;20042;-73
2024/01/08 02:48:06;;;;;;;2.50;1.17;;;-1.10;99.90;;;;;;4994548;28;20041;-73
2024/01/08 02:50:31;;;;;;;0.40;0.40;;;-1.00;99.90;;;;;;5012292;28;20346;-72
2024/01/08 02:52:57;;;;;;;1.67;1.48;;;-1.00;99.90;;;;;;5003045;28;20104;-72
2024/01/08 02:55:23;;;;;;;2.50;0.73;;;-1.00;99.90;;;;;;5009135;28;20401;-72
2024/01/08 02:57:50;;;;;;;1.20;0.73;;;-1.00;99.90;;;;;;5008890;28;20508;-72
2024/01/08 03:00:16;;;;;;;2.13;0.70;;;-0.90;99.90;;;;;;4981252;28;20521;-73
2024/01/08 03:02:44;;;;;;;1.15;0.60;;;-0.90;99.90;;;;;;4991410;28;20121;-73
2024/01/08 03:05:10;;;;;;;1.20;0.90;;;-0.90;99.90;;;;;;5007461;28;20116;-73
2024/01/08 03:07:35;;;;;;;0.50;0.40;;;-0.90;99.90;;;;;;4993497;28;20040;-73
2024/01/08 03:10:01;;;;;;;2.08;1.10;;;-0.90;99.90;;;;;;5009093;28;20045;-73
2024/01/08 03:12:27;;;;;;;1.38;0.63;;;-0.80;99.90;;;;;;5007766;28;20048;-73
2024/01/08 03:14:53;;;;;;;0.93;0.55;;;-0.90;99.90;;;;;;5008351;28;20034;-73
2024/01/08 03:17:19;;;;;;;0.70;0.52;;;-0.80;99.90;;;;;;5006412;28;20096;-73
2024/01/08 03:19:44;;;;;;;1.38;0.85;;;-0.80;99.90;;;;;;5014953;28;20501;-73
2024/01/08 03:22:10;;;;;;;1.40;0.90;;;-0.80;99.90;;;;;;4987587;28;20382;-73
2024/01/08 03:24:36;;;;;;;2.65;1.10;;;-0.70;99.90;;;;;;4986534;28;20116;-73
2024/01/08 03:27:02;;;;;;;4.38;1.00;;;-0.70;99.90;;;;;;5004540;28;20079;-73
2024/01/08 03:29:28;;;;;;;3.35;2.03;;;-0.70;99.90;;;;;;4986669;28;20354;-74
2024/01/08 03:31:54;;;;;;;1.65;0.70;;;-0.70;99.90;;;;;;5001515;28;20030;-74
2024/01/08 03:34:20;;;;;;;1.88;0.68;;;-0.70;99.90;;;;;;5000334;28;20049;-74
2024/01/08 03:36:46;;;;;;;1.52;0.93;;;-0.70;99.90;;;;;;5020704;28;20125;-74
2024/01/08 03:39:17;;;;;;;5.43;1.35;;;-0.70;99.90;;;;;;4995378;28;20038;-73
2024/01/08 03:41:43;;;;;;;2.13;1.05;;;-0.60;99.90;;;;;;4984598;28;20473;-74
2024/01/08 03:44:10;;;;;;;0.50;0.50;;;-0.60;99.90;;;;;;5007165;28;20037;-74
2024/01/08 03:46:36;;;;;;;1.50;0.70;;;-0.60;99.90;;;;;;5008751;28;20049;-74
2024/01/08 03:49:03;;;;;;;0.90;0.90;;;-0.60;99.90;;;;;;5005570;28;20436;-71
2024/01/08 03:51:29;;;;;;;1.98;0.73;;;-0.60;99.90;;;;;;5006581;28;20041;-71
2024/01/08 03:53:55;;;;;;;1.92;0.60;;;-0.50;99.90;;;;;;5004025;28;20042;-71
2024/01/08 03:56:21;;;;;;;1.10;0.88;;;-0.60;99.90;;;;;;5005789;28;20140;-71
2024/01/08 03:58:47;;;;;;;1.75;0.90;;;-0.60;99.90;;;;;;5002624;28;20037;-71
2024/01/08 04:01:12;;;;;;;2.03;1.08;;;-0.50;99.90;;;;;;5004659;28;20039;-71
2024/01/08 04:03:38;;;;;;;1.02;0.75;;;-0.50;99.90;;;;;;4985675;28;20037;-71
2024/01/08 04:06:04;;;;;;;1.88;0.73;;;-0.50;99.90;;;;;;5003122;28;20030;-71
2024/01/08 04:08:30;;;;;;;1.30;0.95;;;-0.50;99.90;;;;;;5015821;28;20140;-71
2024/01/08 04:10:56;;;;;;;1.35;1.15;;;-0.50;99.90;;;;;;5002804;28;20072;-70
2024/01/08 04:13:21;;;;;;;0.93;0.60;;;-0.50;99.90;;;;;;4993465;28;20150;-71
2024/01/08 04:15:47;;;;;;;0.82;0.47;;;-0.50;99.90;;;;;;5011671;28;20050;-71
2024/01/08 04:18:13;;;;;;;3.85;0.75;;;-0.50;99.90;;;;;;4989848;28;20132;-71
2024/01/08 04:20:41;;;;;;;0.47;0.45;;;-0.50;99.90;;;;;;5001242;28;20044;-71
2024/01/08 04:23:07;;;;;;;3.00;0.77;;;-0.50;99.90;;;;;;5001950;28;20050;-71
2024/01/08 04:25:33;;;;;;;1.90;0.70;;;-0.50;99.90;;;;;;5010829;28;20511;-71
2024/01/08 04:27:59;;;;;;;1.42;0.63;;;-0.50;99.90;;;;;;5001523;28;20144;-71
2024/01/08 04:30:24;;;;;;;0.80;0.40;;;-0.50;99.90;;;;;;4987393;28;20042;-71
2024/01/08 04:32:50;;;;;;;3.95;0.63;;;-0.50;99.90;;;;;;5011869;28;20038;-71
2024/01/08 04:35:16;;;;;;;1.27;0.70;;;-0.50;99.90;;;;;;5004271;28;20145;-71
2024/01/08 04:37:41;;;;;;;0.65;0.52;;;-0.50;99.90;;;;;;5006112;28;20046;-71
2024/01/08 04:40:08;;;;;;;1.95;1.02;;;-0.50;99.90;;;;;;4985670;28;20093;-70
2024/01/08 04:42:34;;;;;;;2.30;1.67;;;-0.60;99.90;;;;;;5009106;28;20513;-71
2024/01/08 04:44:59;;;;;;;1.65;0.68;;;-0.60;99.90;;;;;;5012240;28;20450;-71
2024/01/08 04:47:25;;;;;;;1.25;0.85;;;-0.60;99.90;;;;;;5003497;28;20072;-71
2024/01/08 04:49:51;;;;;;;0.43;0.43;;;-0.60;99.90;;;;;;4988135;28;20030;-71
2024/01/08 04:52:17;;;;;;;0.95;0.50;;;-0.60;99.90;;;;;;5001723;28;20076;-71
2024/01/08 04:54:43;;;;;;;1.58;0.82;;;-0.60;99.90;;;;;;5008674;28;20034;-71
2024/01/08 04:57:12;;;;;;;1.70;1.05;;;-0.60;99.90;;;;;;4983686;28;20038;-72
2024/01/08 04:59:41;;;;;;;1.15;0.90;;;-0.60;99.90;;;;;;5011610;28;20049;-75
2024/01/08 05:02:08;;;;;;;1.33;0.60;;;-0.70;99.90;;;;;;5006496;28;20394;-74
2024/01/08 05:04:34;;;;;;;0.88;0.75;;;-0.70;99.90;;;;;;5011112;28;20048;-74
2024/01/08 05:07:00;;;;;;;1.50;1.00;;;-0.70;99.90;;;;;;5004730;28;20041;-74
2024/01/08 05:09:25;;;;;;;1.10;1.00;;;-0.70;99.90;;;;;;5007666;28;20037;-74
2024/01/08 05:11:51;;;;;;;0.80;0.60;;;-0.70;99.90;;;;;;4995165;28;20088;-74
2024/01/08 05:14:17;;;;;;;1.75;0.68;;;-0.70;99.90;;;;;;5005067;28;20562;-74
2024/01/08 05:16:43;;;;;;;1.30;0.32;;;-0.80;99.90;;;;;;5002870;28;20069;-75
2024/01/08 05:19:08;;;;;;;0.52;0.32;;;-0.80;99.90;;;;;;4996178;28;20053;-74
2024/01/08 05:21:34;;;;;;;1.40;1.13;;;-0.80;99.90;;;;;;5007920;28;20049;-74
2024/01/08 05:24:00;;;;;;;0.35;0.35;;;-0.90;99.90;;;;;;5003926;28;20038;-74
2024/01/08 05:26:25;;;;;;;1.45;0.77;;;-0.90;99.90;;;;;;4988022;28;20044;-74
2024/01/08 05:28:51;;;;;;;1.33;1.02;;;-0.90;99.90;;;;;;5004122;28;20042;-74
2024/01/08 05:31:17;;;;;;;0.20;0.20;;;-0.90;99.90;;;;;;5009446;28;20120;-74
2024/01/08 05:33:43;;;;;;;0.93;0.60;;;-0.90;99.90;;;;;;5008483;28;20041;-74
2024/01/08 05:36:09;;;;;;;0.98;0.52;;;-0.90;99.90;;;;;;4996308;28;20161;-74
2024/01/08 05:38:38;;;;;;;0.80;0.45;;;-1.00;99.90;;;;;;5005870;28;20049;-74
2024/01/08 05:41:03;;;;;;;0.73;0.32;;;-1.00;99.90;;;;;;5009805;28;20037;-74
2024/01/08 05:43:29;;;;;;;2.30;0.52;;;-1.00;99.90;;;;;;4996396;28;20044;-74
2024/01/08 05:45:55;;;;;;;1.40;0.50;;;-1.00;99.90;;;;;;5007120;28;20049;-74
2024/01/08 05:48:20;;;;;;;1.08;0.47;;;-1.00;99.90;;;;;;4992327;28;20111;-74
2024/01/08 05:50:46;;;;;;;0.47;0.20;;;-1.00;99.90;;;;;;4990759;28;20042;-74
2024/01/08 05:53:13;;;;;;;0.52;0.52;;;-1.10;99.90;;;;;;4998959;28;20379;-74
2024/01/08 05:55:38;;;;;;;0.95;0.88;;;-1.00;99.90;;;;;;5007237;28;20140;-74
2024/01/08 05:58:04;;;;;;;1.83;0.90;;;-1.10;99.90;;;;;;4996426;28;20076;-74
2024/01/08 06:00:30;;;;;;;1.98;0.68;;;-1.10;99.90;;;;;;5000108;28;20272;-74
2024/01/08 06:02:56;;;;;;;0.63;0.63;;;-1.10;99.90;;;;;;5004456;28;20049;-75
2024/01/08 06:05:22;;;;;;;2.13;0.65;;;-1.10;99.90;;;;;;5001125;28;20080;-74
2024/01/08 06:07:48;;;;;;;0.68;0.68;;;-1.10;99.90;;;;;;4997408;28;20497;-75
2024/01/08 06:10:15;;;;;;;1.33;0.82;;;-1.00;99.90;;;;;;4995686;28;20509;-74
2024/01/08 06:12:40;;;;;;;0.85;0.70;;;-1.10;99.90;;;;;;5025956;28;20037;-74
2024/01/08 06:15:06;;;;;;;1.02;0.52;;;-1.00;99.90;;;;;;5000525;28;20108;-74
2024/01/08 06:17:32;;;;;;;0.28;0.20;;;-1.00;99.90;;;;;;5020278;28;20061;-74
2024/01/08 06:19:58;;;;;;;0.50;0.50;;;-1.10;99.90;;;;;;5005902;28;20390;-74
2024/01/08 06:22:23;;;;;;;1.52;0.77;;;-1.10;99.90;;;;;;5008983;28;20036;-74
2024/01/08 06:24:49;;;;;;;0.47;0.43;;;-1.10;99.90;;;;;;5004549;28;20037;-74
2024/01/08 06:27:15;;;;;;;0.55;0.40;;;-1.00;99.90;;;;;;5008690;28;20429;-74
2024/01/08 06:29:41;;;;;;;0.85;0.70;;;-1.00;99.90;;;;;;5002982;28;20083;-73
2024/01/08 06:32:07;;;;;;;0.82;0.82;;;-1.10;99.90;;;;;;5006102;28;20038;-74
2024/01/08 06:34:33;;;;;;;0.45;0.30;;;-1.00;99.90;;;;;;5008170;28;20064;-74
2024/01/08 06:36:59;;;;;;;0.88;0.77;;;-1.00;99.90;;;;;;5005863;28;20052;-74
2024/01/08 06:39:26;;;;;;;0.50;0.43;;;-1.00;99.90;;;;;;5002961;28;20502;-74
2024/01/08 06:41:52;;;;;;;1.33;1.23;;;-1.00;99.90;;;;;;5009916;28;20079;-75
2024/01/08 06:44:17;;;;;;;0.68;0.68;;;-1.10;99.90;;;;;;4989834;28;20421;-74
2024/01/08 06:46:43;;;;;;;0.98;0.70;;;-1.00;99.90;;;;;;4999729;28;20493;-74
2024/01/08 06:49:09;;;;;;;0.52;0.52;;;-1.00;99.90;;;;;;5004606;28;20102;-74
2024/01/08 06:51:43;;;;;;;1.20;0.70;;;-1.00;99.90;;;;;;5003219;28;20466;-75
2024/01/08 06:54:09;;;;;;;0.40;0.40;;;-1.00;99.90;;;;;;5002431;28;20054;-75
2024/01/08 06:56:34;;;;;;;0.10;0.10;;;-1.00;99.90;;;;;;4995172;28;20044;-75
2024/01/08 06:59:01;;;;;;;0.28;0.28;;;-1.00;99.90;;;;;;5006060;28;20270;-75
2024/01/08 07:01:29;;;;;;;0.10;0.10;;;-1.00;99.90;;;;;;5006824;28;20032;-75
2024/01/08 07:03:55;;;;;;;0.32;0.32;;;-1.00;99.90;;;;;;4994146;28;20034;-75
2024/01/08 07:06:21;;;;;;;1.23;0.75;;;-1.00;99.90;;;;;;4984431;28;20037;-74
2024/01/08 07:08:46;;;;;;;5.47;0.63;;;-1.00;99.90;;;;;;5012921;28;20033;-74
2024/01/08 07:11:25;;;;;;;1.33;0.85;;;-0.90;99.90;;;;;;4993876;28;20033;-75
2024/01/08 07:13:51;;;;;;;1.75;0.77;;;-0.90;99.90;;;;;;5007875;28;20042;-76
2024/01/08 07:16:19;;;;;;;0.30;0.30;;;-0.90;99.90;;;;;;5000875;28;20037;-77
2024/01/08 07:18:46;;;;;;;0.15;0.15;;;-0.90;99.90;;;;;;5009055;28;20065;-76
2024/01/08 07:21:16;;;;;;;0.73;0.52;;;-0.90;99.90;;;;;;5005762;28;20577;-76
2024/01/08 07:23:44;;;;;;;1.50;0.82;;;-0.90;99.90;;;;;;4993926;28;20495;-76
2024/01/08 07:26:10;;;;;;;1.55;1.02;;;-0.90;99.90;;;;;;5008390;28;20204;-76
2024/01/08 07:28:36;;;;;;;0.68;0.50;;;-0.90;99.90;;;;;;5005558;28;20116;-76
2024/01/08 07:31:03;;;;;;;0.30;0.30;;;-0.90;99.90;;;;;;5008619;28;20062;-76
2024/01/08 07:33:29;;;;;;;0.30;0.30;;;-0.80;99.90;;;;;;4994518;28;20072;-76
2024/01/08 07:35:55;;;;;;;0.65;0.55;;;-0.90;99.90;;;;;;5004111;28;20116;-76
2024/01/08 07:38:21;;;;;;;0.30;0.20;;;-0.80;99.90;;;;;;4985148;28;20469;-77
2024/01/08 07:40:48;;;;;;;1.05;0.60;;;-0.80;99.90;;;;;;4986547;28;20498;-76
2024/01/08 07:43:14;;;;;;;1.20;0.47;;;-0.80;99.90;;;;;;4992712;28;20056;-76
2024/01/08 07:45:39;;;;;;;1.30;0.63;;;-0.70;99.90;;;;;;5000254;28;20402;-76
2024/01/08 07:48:05;;;;;;;0.80;0.68;;;-0.70;99.90;;;;;;4983168;28;20043;-76
2024/01/08 07:50:31;;;;;;;5.47;1.05;;;-0.70;99.90;;;;;;4999756;28;20073;-77
2024/01/08 07:53:00;;;;;;;0.65;0.50;;;-0.70;99.90;;;;;;5000266;28;20132;-77
2024/01/08 07:55:26;;;;;;;0.40;0.30;;;-0.70;99.90;;;;;;4998878;28;20100;-76
2024/01/08 07:57:51;;;;;;;0.30;0.28;;;-0.70;99.90;;;;;;5001036;28;20033;-76
2024/01/08 08:00:19;;;;;;;0.70;0.38;;;-0.60;99.90;;;;;;4982119;28;20045;-76
2024/01/08 08:02:45;;;;;;;0.82;0.60;;;-0.60;99.90;;;;;;5006442;28;20106;-76
2024/01/08 08:05:11;;;;;;;1.73;1.10;;;-0.60;99.90;;;;;;5002798;28;20277;-76
2024/01/08 08:07:36;;;;;;;0.20;0.20;;;-0.60;99.90;;;;;;5002612;28;20061;-77
2024/01/08 08:10:03;;;;;;;1.52;0.40;;;-0.50;99.90;;;;;;5008766;28;20072;-76
2024/01/08 08:12:30;;;;;;;0.80;0.60;;;-0.50;99.90;;;;;;5002001;28;20046;-77
2024/01/08 08:14:58;;;;;;;0.70;0.52;;;-0.50;99.90;;;;;;5006208;28;20389;-76
2024/01/08 08:17:25;;;;;;;0.95;0.55;;;-0.50;99.90;;;;;;4983263;28;20144;-76
2024/01/08 08:19:51;;;;;;;1.65;0.57;;;-0.50;99.90;;;;;;5010286;28;20037;-75
2024/01/08 08:22:16;;;;;;;1.75;0.90;;;-0.40;99.90;;;;;;5001583;28;20037;-76
2024/01/08 08:24:42;;;;;;;1.30;0.65;;;-0.40;99.90;;;;;;5008919;28;20386;-77
2024/01/08 08:27:09;;;;;;;0.65;0.52;;;-0.40;99.90;;;;;;4984458;28;20073;-77
2024/01/08 08:29:43;;;;;;;0.25;0.20;;;-0.40;99.90;;;;;;5004442;28;20052;-77
2024/01/08 08:32:09;;;;;;;0.28;0.17;;;-0.40;99.90;;;;;;5006605;28;20042;-76
2024/01/08 08:34:35;;;;;;;0.95;0.40;;;-0.30;99.90;;;;;;4995018;28;20548;-77
2024/01/08 08:37:01;;;;;;;0.52;0.32;;;-0.30;99.90;;;;;;4997514;28;20080;-77
2024/01/08 08:39:27;;;;;;;0.82;0.25;;;-0.30;99.90;;;;;;4983316;28;20501;-76
2024/01/08 08:41:55;;;;;;;1.27;1.17;;;-0.30;99.90;;;;;;5007746;28;20053;-76
2024/01/08 08:44:21;;;;;;;1.30;1.20;;;-0.30;99.90;;;;;;5002876;28;20042;-77
2024/01/08 08:46:46;;;;;;;1.35;0.95;;;-0.20;99.90;;;;;;4990138;28;20556;-77
2024/01/08 08:49:25;;;;;;;2.13;0.80;;;-0.20;99.90;;;;;;4996347;28;20046;-75
2024/01/08 08:51:52;;;;;;;0.95;0.25;;;-0.20;99.90;;;;;;5007164;28;20063;-76
2024/01/08 08:54:17;;;;;;;0.50;0.43;;;-0.20;99.90;;;;;;4993852;28;20379;-77
2024/01/08 08:56:43;;;;;;;4.85;1.00;;;-0.20;99.90;;;;;;4983622;28;20048;-76
2024/01/08 08:59:09;;;;;;;0.50;0.25;;;-0.20;99.90;;;;;;5004698;28;20136;-76
2024/01/08 09:01:35;;;;;;;0.40;0.20;;;-0.10;99.90;;;;;;5013433;28;20259;-77
2024/01/08 09:04:01;;;;;;;2.80;0.32;;;-0.20;99.90;;;;;;4998226;28;20034;-76
2024/01/08 09:06:27;;;;;;;0.20;0.20;;;-0.10;99.90;;;;;;4997277;28;20125;-75
2024/01/08 09:08:57;;;;;;;1.10;0.55;;;-0.20;99.90;;;;;;5012407;28;20477;-76
2024/01/08 09:11:23;;;;;;;0.08;0.08;;;-0.10;99.90;;;;;;5011265;28;20041;-75
2024/01/08 09:13:49;;;;;;;2.80;0.88;;;-0.10;99.90;;;;;;4987021;28;20049;-75
2024/01/08 09:16:15;;;;;;;2.80;0.50;;;-0.20;99.90;;;;;;5000483;28;20046;-75
2024/01/08 09:18:42;;;;;;;0.43;0.30;;;-0.10;99.90;;;;;;5009744;28;20041;-75
2024/01/08 09:21:09;;;;;;;1.17;0.43;;;-0.10;99.90;;;;;;5006061;28;20048;-75
2024/01/08 09:23:35;;;;;;;0.13;0.10;;;0.00;99.90;;;;;;5008564;28;20533;-76
2024/01/08 09:26:01;;;;;;;1.58;0.75;;;0.00;99.90;;;;;;4988767;28;20041;-75
2024/01/08 09:28:26;;;;;;;1.05;0.43;;;0.00;99.90;;;;;;5009403;28;20037;-75
2024/01/08 09:30:53;;;;;;;1.55;0.73;;;0.00;99.90;;;;;;4994006;28;20038;-75
2024/01/08 09:33:20;;;;;;;0.63;0.50;;;0.10;99.90;;;;;;5010726;28;20041;-75
2024/01/08 09:35:45;;;;;;;0.32;0.30;;;0.10;99.90;;;;;;5018391;28;20390;-75
2024/01/08 09:38:11;;;;;;;0.73;0.50;;;0.10;99.90;;;;;;5014436;28;20048;-72
2024/01/08 09:40:37;;;;;;;0.68;0.55;;;0.10;99.90;;;;;;5002689;28;20087;-72
2024/01/08 09:43:06;;;;;;;0.43;0.35;;;0.10;99.90;;;;;;5006940;28;20132;-72
2024/01/08 09:45:32;;;;;;;0.13;0.13;;;0.10;99.90;;;;;;5006329;28;20056;-72
2024/01/08 09:47:58;;;;;;;0.40;0.30;;;0.10;99.90;;;;;;4990314;28;20493;-72
2024/01/08 09:50:28;;;;;;;0.40;0.32;;;0.20;99.90;;;;;;5006697;28;20144;-72
2024/01/08 09:52:55;;;;;;;1.45;1.20;;;0.20;99.90;;;;;;4987641;28;20045;-73
2024/01/08 09:55:21;;;;;;;2.70;0.40;;;0.10;99.90;;;;;;5003728;28;20112;-72
2024/01/08 09:57:47;;;;;;;1.15;0.90;;;0.20;99.90;;;;;;5008226;28;20037;-72
2024/01/08 10:00:14;;;;;;;0.98;0.63;;;0.30;99.90;;;;;;5004729;28;20104;-72
2024/01/08 10:02:40;;;;;;;0.60;0.30;;;0.30;99.90;;;;;;5004139;28;20045;-73
2024/01/08 10:05:07;;;;;;;1.23;0.50;;;0.30;99.90;;;;;;5005818;28;20080;-72
2024/01/08 10:07:37;;;;;;;0.63;0.35;;;0.30;99.90;;;;;;5002261;28;20046;-72
2024/01/08 10:10:03;;;;;;;0.70;0.63;;;0.30;99.90;;;;;;5005475;28;20049;-72
2024/01/08 10:12:32;;;;;;;2.10;1.27;;;0.30;99.90;;;;;;5004784;28;20048;-72
2024/01/08 10:14:58;;;;;;;0.68;0.60;;;0.30;99.90;;;;;;4997570;28;20048;-73
2024/01/08 10:17:24;;;;;;;1.10;0.75;;;0.30;99.90;;;;;;5008517;28;20038;-73
2024/01/08 10:19:50;;;;;;;1.25;0.70;;;0.30;99.90;;;;;;4999252;28;20054;-73
2024/01/08 10:22:43;;;;;;;0.32;0.15;;;0.40;99.90;;;;;;5009590;28;20041;-72
2024/01/08 10:25:09;;;;;;;0.10;0.10;;;0.40;99.90;;;;;;5005951;28;20037;-72
2024/01/08 10:27:35;;;;;;;0.68;0.35;;;0.40;99.90;;;;;;5009639;28;20497;-72
2024/01/08 10:30:01;;;;;;;2.20;0.55;;;0.30;99.90;;;;;;5008154;28;20048;-73
2024/01/08 10:32:27;;;;;;;1.08;0.55;;;0.40;99.90;;;;;;5006640;28;20034;-72
2024/01/08 10:34:55;;;;;;;0.38;0.35;;;0.40;99.90;;;;;;5004086;28;20038;-73
2024/01/08 10:37:21;;;;;;;0.82;0.63;;;0.40;99.90;;;;;;5003179;28;20045;-73
2024/01/08 10:39:48;;;;;;;0.38;0.35;;;0.50;99.90;;;;;;4995614;28;20333;-73
2024/01/08 10:42:14;;;;;;;1.08;0.40;;;0.50;99.90;;;;;;5006143;28;20037;-72
2024/01/08 10:44:40;;;;;;;0.38;0.38;;;0.60;99.90;;;;;;5008146;28;20037;-73
2024/01/08 10:47:15;;;;;;;2.80;1.05;;;0.60;99.90;;;;;;4994500;28;20046;-73
2024/01/08 10:49:45;;;;;;;0.38;0.30;;;0.60;99.90;;;;;;5006421;28;20049;-74
2024/01/08 10:52:20;;;;;;;0.55;0.40;;;0.60;99.90;;;;;;5005317;28;20196;-72
2024/01/08 10:54:57;;;;;;;1.73;0.45;;;0.50;99.90;;;;;;5009277;28;20052;-74
2024/01/08 10:57:43;;;;;;;0.20;0.20;;;0.60;99.90;;;;;;5005509;28;20033;-73
2024/01/08 11:00:12;;;;;;;0.63;0.28;;;0.60;99.90;;;;;;5019421;28;20037;-76
2024/01/08 11:02:39;;;;;;;0.35;0.25;;;0.60;99.90;;;;;;4993311;28;20124;-72
2024/01/08 11:05:06;;;;;;;0.50;0.50;;;0.60;99.90;;;;;;5005445;28;20116;-75
2024/01/08 11:07:38;;;;;;;0.68;0.43;;;0.60;99.90;;;;;;4996156;28;20046;-72
2024/01/08 11:10:06;;;;;;;0.85;0.35;;;0.60;99.90;;;;;;5006261;28;20037;-73
2024/01/08 11:12:36;;;;;;;0.20;0.17;;;0.60;99.90;;;;;;5006186;28;20489;-74
2024/01/08 11:15:03;;;;;;;0.65;0.60;;;0.50;99.90;;;;;;5007229;28;20038;-73
2024/01/08 11:17:29;;;;;;;0.98;0.32;;;0.60;99.90;;;;;;5002721;28;20497;-74
2024/01/08 11:19:57;;;;;;;0.25;0.25;;;0.70;99.90;;;;;;4988310;28;20068;-74
2024/01/08 11:22:23;;;;;;;1.38;0.55;;;0.60;99.90;;;;;;4992942;28;20037;-72
2024/01/08 11:24:49;;;;;;;0.77;0.68;;;0.60;99.90;;;;;;5008445;28;20038;-72
2024/01/08 11:27:16;;;;;;;0.77;0.70;;;0.50;99.90;;;;;;5006029;28;20037;-71
2024/01/08 11:29:45;;;;;;;0.52;0.40;;;0.60;99.90;;;;;;5012495;28;20052;-76
2024/01/08 11:32:46;;;;;;;5.78;0.20;;;0.70;99.90;;;;;;5002720;28;20052;-78
2024/01/08 11:35:13;;;;;;;0.73;0.35;;;0.80;99.90;;;;;;4990904;28;20369;-73
2024/01/08 11:37:44;;;;;;;0.80;0.55;;;0.80;99.90;;;;;;5004710;28;20517;-74
2024/01/08 11:40:19;;;;;;;0.43;0.30;;;0.90;99.90;;;;;;4990391;28;20493;-77
2024/01/08 11:42:49;;;;;;;0.40;0.40;;;0.90;99.90;;;;;;4998403;28;20045;-77
2024/01/08 11:45:19;;;;;;;0.40;0.30;;;0.90;99.90;;;;;;5008454;28;20042;-77
2024/01/08 11:47:45;;;;;;;0.93;0.68;;;1.00;99.90;;;;;;4984680;28;20161;-78
2024/01/08 11:50:12;;;;;;;0.32;0.13;;;0.90;99.90;;;;;;5003148;28;20339;-76
2024/01/08 11:52:39;;;;;;;0.22;0.20;;;0.90;99.90;;;;;;4999424;28;20077;-76
2024/01/08 11:55:09;;;;;;;1.10;0.65;;;0.90;99.90;;;;;;5002462;28;20049;-76
2024/01/08 11:57:36;;;;;;;0.60;0.40;;;0.80;99.90;;;;;;4997101;28;20449;-78
2024/01/08 12:00:15;;;;;;;0.15;0.15;;;0.70;99.90;;;;;;5001839;28;20041;-76
2024/01/08 12:02:41;;;;;;;0.55;0.32;;;0.60;99.90;;;;;;4993666;28;20080;-75
2024/01/08 12:05:09;;;;;;;0.22;0.22;;;0.60;99.90;;;;;;4998994;28;20057;-74
2024/01/08 12:07:38;;;;;;;0.60;0.40;;;0.50;99.90;;;;;;5007702;28;20121;-74
2024/01/08 12:10:06;;;;;;;0.20;0.20;;;0.50;99.90;;;;;;4987321;28;20127;-77
2024/01/08 12:12:32;;;;;;;0.50;0.50;;;0.50;99.90;;;;;;5007132;28;20166;-77
2024/01/08 12:14:58;;;;;;;0.50;0.20;;;0.50;99.90;;;;;;4993710;28;20060;-77
2024/01/08 12:17:24;;;;;;;0.65;0.43;;;0.60;99.90;;;;;;5006602;28;20041;-76
2024/01/08 12:19:54;;;;;;;1.02;0.73;;;0.80;99.90;;;;;;5004460;28;20108;-75
2024/01/08 12:24:58;;;;;;;1.50;0.63;;;0.90;99.90;;;;;;4980835;28;20105;-85
2024/01/08 12:27:31;;;;;;;0.80;0.55;;;1.00;99.90;;;;;;4947449;28;20034;-85
2024/01/08 12:29:57;;;;;;;1.65;0.73;;;1.10;99.90;;;;;;4951085;28;20073;-85
2024/01/08 12:32:26;;;;;;;0.45;0.45;;;1.10;99.90;;;;;;4948208;28;20085;-85
2024/01/08 12:34:51;;;;;;;0.88;0.52;;;1.10;99.90;;;;;;4948609;28;20043;-82
2024/01/08 12:37:19;;;;;;;1.70;0.40;;;1.10;99.90;;;;;;4971743;28;20057;-83
2024/01/08 12:39:46;;;;;;;0.45;0.45;;;1.10;99.90;;;;;;4958349;28;20050;-82
2024/01/08 12:42:17;;;;;;;1.60;0.50;;;1.00;99.90;;;;;;4977676;28;20126;-83
2024/01/08 12:44:44;;;;;;;0.00;0.00;;;0.90;99.90;;;;;;4980333;28;20113;-83
2024/01/08 12:47:11;;;;;;;0.63;0.40;;;0.80;99.90;;;;;;4959847;28;20070;-84
2024/01/08 12:49:37;;;;;;;1.02;0.28;;;0.80;99.90;;;;;;4953721;28;20124;-84
2024/01/08 12:52:04;;;;;;;1.80;0.57;;;0.70;99.90;;;;;;4961319;28;20038;-85